Time,TemperatureF,DewpointF,PressureIn,WindDirection,WindDirectionDegrees,WindSpeedMPH,WindSpeedGustMPH,Humidity,HourlyPrecipIn,Conditions,Clouds,dailyrainin,SolarRadiationWatts/m^2,SoftwareType,DateUTC
2013-06-02 00:00:00,63.0,47.0,29.83,North,2,5.0,-999.0,55,0.00,,,-99.99,-2.700000,,2013-06-02 07:00:00,
2013-06-02 00:22:00,63.0,47.0,29.83,North,2,5.0,-999.0,55,0.00,,,-99.99,-2.700000,,2013-06-02 07:22:00,
2013-06-02 00:32:00,63.0,47.0,29.83,North,2,5.0,-999.0,55,0.00,,,-99.99,-2.700000,,2013-06-02 07:32:00,
2013-06-02 00:42:00,63.0,47.0,29.83,North,2,5.0,-999.0,55,0.00,,,-99.99,-2.700000,,2013-06-02 07:42:00,
2013-06-02 00:52:00,63.0,47.0,29.83,North,2,5.0,-999.0,55,0.00,,,-99.99,-2.700000,,2013-06-02 07:52:00,
2013-06-02 01:00:00,63.0,47.0,29.82,NW,311,1.0,-999.0,56,0.00,,,-99.99,-2.400000,,2013-06-02 08:00:00,
2013-06-02 01:22:00,63.0,47.0,29.82,NW,311,1.0,-999.0,56,0.00,,,-99.99,-2.400000,,2013-06-02 08:22:00,
2013-06-02 01:32:00,63.0,47.0,29.82,NW,311,1.0,-999.0,56,0.00,,,-99.99,-2.400000,,2013-06-02 08:32:00,
2013-06-02 01:42:00,63.0,47.0,29.82,NW,311,1.0,-999.0,56,0.00,,,-99.99,-2.400000,,2013-06-02 08:42:00,
2013-06-02 01:52:00,63.0,47.0,29.82,NW,311,1.0,-999.0,56,0.00,,,-99.99,-2.400000,,2013-06-02 08:52:00,
2013-06-02 02:00:00,63.0,47.0,29.81,North,351,5.0,-999.0,55,0.00,,,-99.99,-2.600000,,2013-06-02 09:00:00,
2013-06-02 02:21:00,63.0,47.0,29.81,North,351,5.0,-999.0,55,0.00,,,-99.99,-2.600000,,2013-06-02 09:21:00,
2013-06-02 02:33:00,63.0,47.0,29.81,North,351,5.0,-999.0,55,0.00,,,-99.99,-2.600000,,2013-06-02 09:33:00,
2013-06-02 02:43:00,63.0,47.0,29.81,North,351,5.0,-999.0,55,0.00,,,-99.99,-2.600000,,2013-06-02 09:43:00,
2013-06-02 02:53:00,63.0,47.0,29.81,North,351,5.0,-999.0,55,0.00,,,-99.99,-2.600000,,2013-06-02 09:53:00,
2013-06-02 03:00:00,63.0,47.0,29.80,WNW,299,2.0,-999.0,54,0.00,,,-99.99,-2.700000,,2013-06-02 10:00:00,
2013-06-02 03:23:00,63.0,47.0,29.80,WNW,299,2.0,-999.0,54,0.00,,,-99.99,-2.700000,,2013-06-02 10:23:00,
2013-06-02 03:33:00,63.0,47.0,29.80,WNW,299,2.0,-999.0,54,0.00,,,-99.99,-2.700000,,2013-06-02 10:33:00,
2013-06-02 03:42:00,63.0,47.0,29.80,WNW,299,2.0,-999.0,54,0.00,,,-99.99,-2.700000,,2013-06-02 10:42:00,
2013-06-02 03:52:00,63.0,47.0,29.80,WNW,299,2.0,-999.0,54,0.00,,,-99.99,-2.700000,,2013-06-02 10:52:00,
2013-06-02 04:00:00,62.0,46.0,29.78,NW,308,3.0,-999.0,57,0.00,,,-99.99,-2.800000,,2013-06-02 11:00:00,
2013-06-02 04:22:00,62.0,46.0,29.78,NW,308,3.0,-999.0,57,0.00,,,-99.99,-2.800000,,2013-06-02 11:22:00,
2013-06-02 04:32:00,62.0,46.0,29.78,NW,308,3.0,-999.0,57,0.00,,,-99.99,-2.800000,,2013-06-02 11:32:00,
2013-06-02 04:42:00,62.0,46.0,29.78,NW,308,3.0,-999.0,57,0.00,,,-99.99,-2.800000,,2013-06-02 11:42:00,
2013-06-02 04:52:00,62.0,46.0,29.78,NW,308,3.0,-999.0,57,0.00,,,-99.99,-2.800000,,2013-06-02 11:52:00,
2013-06-02 05:00:00,60.0,46.0,29.77,WNW,287,3.0,-999.0,61,0.00,,,-99.99,-3.000000,,2013-06-02 12:00:00,
2013-06-02 05:22:00,60.0,46.0,29.77,WNW,287,3.0,-999.0,61,0.00,,,-99.99,-3.000000,,2013-06-02 12:22:00,
2013-06-02 05:32:00,60.0,46.0,29.77,WNW,287,3.0,-999.0,61,0.00,,,-99.99,-3.000000,,2013-06-02 12:32:00,
2013-06-02 05:42:00,60.0,46.0,29.77,WNW,287,3.0,-999.0,61,0.00,,,-99.99,-3.000000,,2013-06-02 12:42:00,
2013-06-02 05:52:00,60.0,46.0,29.77,WNW,287,3.0,-999.0,61,0.00,,,-99.99,-3.000000,,2013-06-02 12:52:00,
2013-06-02 06:00:00,56.0,46.0,29.77,WSW,246,1.0,-999.0,67,0.00,,,-99.99,0.000000,,2013-06-02 13:00:00,
2013-06-02 06:22:00,56.0,46.0,29.77,WSW,246,1.0,-999.0,67,0.00,,,-99.99,0.000000,,2013-06-02 13:22:00,
2013-06-02 06:32:00,56.0,46.0,29.77,WSW,246,1.0,-999.0,67,0.00,,,-99.99,0.000000,,2013-06-02 13:32:00,
2013-06-02 06:42:00,56.0,46.0,29.77,WSW,246,1.0,-999.0,67,0.00,,,-99.99,0.000000,,2013-06-02 13:42:00,
2013-06-02 06:52:00,56.0,46.0,29.77,WSW,246,1.0,-999.0,67,0.00,,,-99.99,0.000000,,2013-06-02 13:52:00,
2013-06-02 07:00:00,63.0,46.0,29.77,NNW,345,2.0,-999.0,52,0.00,,,-99.99,23.000000,,2013-06-02 14:00:00,
2013-06-02 07:22:00,63.0,46.0,29.77,NNW,345,2.0,-999.0,52,0.00,,,-99.99,23.000000,,2013-06-02 14:22:00,
2013-06-02 07:32:00,63.0,46.0,29.77,NNW,345,2.0,-999.0,52,0.00,,,-99.99,23.000000,,2013-06-02 14:32:00,
2013-06-02 07:42:00,63.0,46.0,29.77,NNW,345,2.0,-999.0,52,0.00,,,-99.99,23.000000,,2013-06-02 14:42:00,
2013-06-02 07:52:00,63.0,46.0,29.77,NNW,345,2.0,-999.0,52,0.00,,,-99.99,23.000000,,2013-06-02 14:52:00,
2013-06-02 08:00:00,69.0,47.0,29.78,North,351,4.0,-999.0,44,0.00,,,-99.99,249.399994,,2013-06-02 15:00:00,
2013-06-02 08:22:00,69.0,47.0,29.78,North,351,4.0,-999.0,44,0.00,,,-99.99,249.399994,,2013-06-02 15:22:00,
2013-06-02 08:33:00,69.0,47.0,29.78,North,351,4.0,-999.0,44,0.00,,,-99.99,249.399994,,2013-06-02 15:33:00,
2013-06-02 08:43:00,69.0,47.0,29.78,North,351,4.0,-999.0,44,0.00,,,-99.99,249.399994,,2013-06-02 15:43:00,
2013-06-02 08:53:00,69.0,47.0,29.78,North,351,4.0,-999.0,44,0.00,,,-99.99,249.399994,,2013-06-02 15:53:00,
2013-06-02 09:00:00,76.0,48.0,29.79,North,3,4.0,-999.0,37,0.00,,,-99.99,473.399994,,2013-06-02 16:00:00,
2013-06-02 09:23:00,76.0,48.0,29.79,North,3,4.0,-999.0,37,0.00,,,-99.99,473.399994,,2013-06-02 16:23:00,
2013-06-02 09:33:00,76.0,48.0,29.79,North,3,4.0,-999.0,37,0.00,,,-99.99,473.399994,,2013-06-02 16:33:00,
2013-06-02 09:42:00,76.0,48.0,29.79,North,3,4.0,-999.0,37,0.00,,,-99.99,473.399994,,2013-06-02 16:42:00,
2013-06-02 09:52:00,76.0,48.0,29.79,North,3,4.0,-999.0,37,0.00,,,-99.99,473.399994,,2013-06-02 16:52:00,
2013-06-02 10:00:00,84.0,51.0,29.79,East,101,0.0,-999.0,31,0.00,,,-99.99,651.099976,,2013-06-02 17:00:00,
2013-06-02 10:23:00,84.0,51.0,29.79,East,101,0.0,-999.0,31,0.00,,,-99.99,651.099976,,2013-06-02 17:23:00,
2013-06-02 10:32:00,84.0,51.0,29.79,East,101,0.0,-999.0,31,0.00,,,-99.99,651.099976,,2013-06-02 17:32:00,
2013-06-02 10:42:00,84.0,51.0,29.79,East,101,0.0,-999.0,31,0.00,,,-99.99,651.099976,,2013-06-02 17:42:00,
2013-06-02 10:52:00,84.0,51.0,29.79,East,101,0.0,-999.0,31,0.00,,,-99.99,651.099976,,2013-06-02 17:52:00,
2013-06-02 11:00:00,87.0,48.0,29.79,WSW,258,2.0,-999.0,26,0.00,,,-99.99,795.099976,,2013-06-02 18:00:00,
2013-06-02 11:22:00,87.0,48.0,29.79,WSW,258,2.0,-999.0,26,0.00,,,-99.99,795.099976,,2013-06-02 18:22:00,
2013-06-02 11:32:00,87.0,48.0,29.79,WSW,258,2.0,-999.0,26,0.00,,,-99.99,795.099976,,2013-06-02 18:32:00,
2013-06-02 11:42:00,87.0,48.0,29.79,WSW,258,2.0,-999.0,26,0.00,,,-99.99,795.099976,,2013-06-02 18:42:00,
2013-06-02 11:52:00,87.0,48.0,29.79,WSW,258,2.0,-999.0,26,0.00,,,-99.99,795.099976,,2013-06-02 18:52:00,
2013-06-02 12:00:00,89.0,48.0,29.78,SSW,200,2.0,-999.0,24,0.00,,,-99.99,894.599976,,2013-06-02 19:00:00,
2013-06-02 12:22:00,89.0,48.0,29.78,SSW,200,2.0,-999.0,24,0.00,,,-99.99,894.599976,,2013-06-02 19:22:00,
2013-06-02 12:32:00,89.0,48.0,29.78,SSW,200,2.0,-999.0,24,0.00,,,-99.99,894.599976,,2013-06-02 19:32:00,
2013-06-02 12:42:00,89.0,48.0,29.78,SSW,200,2.0,-999.0,24,0.00,,,-99.99,894.599976,,2013-06-02 19:42:00,
2013-06-02 12:52:00,89.0,48.0,29.78,SSW,200,2.0,-999.0,24,0.00,,,-99.99,894.599976,,2013-06-02 19:52:00,
2013-06-02 13:00:00,89.0,51.0,29.78,SSW,207,1.0,-999.0,27,0.00,,,-99.99,939.400024,,2013-06-02 20:00:00,
2013-06-02 13:22:00,89.0,51.0,29.78,SSW,207,1.0,-999.0,27,0.00,,,-99.99,939.400024,,2013-06-02 20:22:00,
2013-06-02 13:32:00,89.0,51.0,29.78,SSW,207,1.0,-999.0,27,0.00,,,-99.99,939.400024,,2013-06-02 20:32:00,
2013-06-02 13:42:00,89.0,51.0,29.78,SSW,207,1.0,-999.0,27,0.00,,,-99.99,939.400024,,2013-06-02 20:42:00,
2013-06-02 13:52:00,89.0,51.0,29.78,SSW,207,1.0,-999.0,27,0.00,,,-99.99,939.400024,,2013-06-02 20:52:00,
2013-06-02 14:00:00,90.0,49.0,29.77,West,261,3.0,-999.0,24,0.00,,,-99.99,944.799988,,2013-06-02 21:00:00,
2013-06-02 14:22:00,90.0,49.0,29.77,West,261,3.0,-999.0,24,0.00,,,-99.99,944.799988,,2013-06-02 21:22:00,
2013-06-02 14:33:00,90.0,49.0,29.77,West,261,3.0,-999.0,24,0.00,,,-99.99,944.799988,,2013-06-02 21:33:00,
2013-06-02 14:42:00,90.0,49.0,29.77,West,261,3.0,-999.0,24,0.00,,,-99.99,944.799988,,2013-06-02 21:42:00,
2013-06-02 14:53:00,90.0,49.0,29.77,West,261,3.0,-999.0,24,0.00,,,-99.99,944.799988,,2013-06-02 21:53:00,
2013-06-02 15:00:00,91.0,43.0,29.77,SSE,147,1.0,-999.0,19,0.00,,,-99.99,901.000000,,2013-06-02 22:00:00,
2013-06-02 15:23:00,91.0,43.0,29.77,SSE,147,1.0,-999.0,19,0.00,,,-99.99,901.000000,,2013-06-02 22:23:00,
2013-06-02 15:33:00,91.0,43.0,29.77,SSE,147,1.0,-999.0,19,0.00,,,-99.99,901.000000,,2013-06-02 22:33:00,
2013-06-02 15:42:00,91.0,43.0,29.77,SSE,147,1.0,-999.0,19,0.00,,,-99.99,901.000000,,2013-06-02 22:42:00,
2013-06-02 15:52:00,91.0,43.0,29.77,SSE,147,1.0,-999.0,19,0.00,,,-99.99,901.000000,,2013-06-02 22:52:00,
2013-06-02 16:00:00,91.0,43.0,29.76,SW,225,1.0,-999.0,18,0.00,,,-99.99,798.099976,,2013-06-02 23:00:00,
2013-06-02 16:22:00,91.0,43.0,29.76,SW,225,1.0,-999.0,18,0.00,,,-99.99,798.099976,,2013-06-02 23:22:00,
2013-06-02 16:32:00,91.0,43.0,29.76,SW,225,1.0,-999.0,18,0.00,,,-99.99,798.099976,,2013-06-02 23:32:00,
2013-06-02 16:42:00,91.0,43.0,29.76,SW,225,1.0,-999.0,18,0.00,,,-99.99,798.099976,,2013-06-02 23:42:00,
2013-06-02 16:52:00,91.0,43.0,29.76,SW,225,1.0,-999.0,18,0.00,,,-99.99,798.099976,,2013-06-02 23:52:00,
2013-06-02 17:00:00,92.0,41.0,29.75,West,264,1.0,-999.0,17,0.00,,,-99.99,663.200012,,2013-06-03 00:00:00,
2013-06-02 17:22:00,92.0,41.0,29.75,West,264,1.0,-999.0,17,0.00,,,-99.99,663.200012,,2013-06-03 00:22:00,
2013-06-02 17:32:00,92.0,41.0,29.75,West,264,1.0,-999.0,17,0.00,,,-99.99,663.200012,,2013-06-03 00:32:00,
2013-06-02 17:42:00,92.0,41.0,29.75,West,264,1.0,-999.0,17,0.00,,,-99.99,663.200012,,2013-06-03 00:42:00,
2013-06-02 17:52:00,92.0,41.0,29.75,West,264,1.0,-999.0,17,0.00,,,-99.99,663.200012,,2013-06-03 00:52:00,
2013-06-02 19:00:00,90.0,44.0,29.73,WNW,291,1.0,-999.0,20,0.00,,,-99.99,232.300003,,2013-06-03 02:00:00,
2013-06-02 19:22:00,90.0,44.0,29.73,WNW,291,1.0,-999.0,20,0.00,,,-99.99,232.300003,,2013-06-03 02:22:00,
2013-06-02 19:32:00,90.0,44.0,29.73,WNW,291,1.0,-999.0,20,0.00,,,-99.99,232.300003,,2013-06-03 02:32:00,
2013-06-02 19:42:00,90.0,44.0,29.73,WNW,291,1.0,-999.0,20,0.00,,,-99.99,232.300003,,2013-06-03 02:42:00,
2013-06-02 19:52:00,90.0,44.0,29.73,WNW,291,1.0,-999.0,20,0.00,,,-99.99,232.300003,,2013-06-03 02:52:00,
2013-06-02 20:00:00,77.0,48.0,29.73,NNW,343,1.0,-999.0,37,0.00,,,-99.99,48.099998,,2013-06-03 03:00:00,
2013-06-02 20:22:00,77.0,48.0,29.73,NNW,343,1.0,-999.0,37,0.00,,,-99.99,48.099998,,2013-06-03 03:22:00,
2013-06-02 20:33:00,77.0,48.0,29.73,NNW,343,1.0,-999.0,37,0.00,,,-99.99,48.099998,,2013-06-03 03:33:00,
2013-06-02 20:43:00,77.0,48.0,29.73,NNW,343,1.0,-999.0,37,0.00,,,-99.99,48.099998,,2013-06-03 03:43:00,
2013-06-02 20:53:00,77.0,48.0,29.73,NNW,343,1.0,-999.0,37,0.00,,,-99.99,48.099998,,2013-06-03 03:53:00,
2013-06-02 21:00:00,70.0,50.0,29.73,NNW,330,0.0,-999.0,49,0.00,,,-99.99,0.400000,,2013-06-03 04:00:00,
2013-06-02 21:23:00,70.0,50.0,29.73,NNW,330,0.0,-999.0,49,0.00,,,-99.99,0.400000,,2013-06-03 04:23:00,
2013-06-02 21:33:00,70.0,50.0,29.73,NNW,330,0.0,-999.0,49,0.00,,,-99.99,0.400000,,2013-06-03 04:33:00,
2013-06-02 21:53:00,70.0,50.0,29.73,NNW,330,0.0,-999.0,49,0.00,,,-99.99,0.400000,,2013-06-03 04:53:00,
2013-06-02 22:00:00,66.0,49.0,29.74,WSW,243,0.0,-999.0,53,0.00,,,-99.99,-2.800000,,2013-06-03 05:00:00,
2013-06-02 22:22:00,66.0,49.0,29.74,WSW,243,0.0,-999.0,53,0.00,,,-99.99,-2.800000,,2013-06-03 05:22:00,
2013-06-02 22:32:00,66.0,49.0,29.74,WSW,243,0.0,-999.0,53,0.00,,,-99.99,-2.800000,,2013-06-03 05:32:00,
2013-06-02 22:43:00,66.0,49.0,29.74,WSW,243,0.0,-999.0,53,0.00,,,-99.99,-2.800000,,2013-06-03 05:43:00,
2013-06-02 22:52:00,66.0,49.0,29.74,WSW,243,0.0,-999.0,53,0.00,,,-99.99,-2.800000,,2013-06-03 05:52:00,
2013-06-02 23:00:00,65.0,49.0,29.75,WSW,239,1.0,-999.0,55,0.00,,,-99.99,-2.400000,,2013-06-03 06:00:00,
2013-06-02 23:22:00,65.0,49.0,29.75,WSW,239,1.0,-999.0,55,0.00,,,-99.99,-2.400000,,2013-06-03 06:22:00,
2013-06-02 23:32:00,65.0,49.0,29.75,WSW,239,1.0,-999.0,55,0.00,,,-99.99,-2.400000,,2013-06-03 06:32:00,
2013-06-02 23:42:00,65.0,49.0,29.75,WSW,239,1.0,-999.0,55,0.00,,,-99.99,-2.400000,,2013-06-03 06:42:00,
2013-06-02 23:52:00,65.0,49.0,29.75,WSW,239,1.0,-999.0,55,0.00,,,-99.99,-2.400000,,2013-06-03 06:52:00,